Horgen, Switzerland
Current Conditions -  °F | °C
As of 6:50 AM on Tuesday 21 Oct 2014 (Local Time) from LSMD Reporting Station
Rain Showers Rain Showers  
Wind Chill: 57°   Ceiling: 3500
Heat Index: 57°   Visibility: 6mi
Dew Point: 54°   Wind: 5mph
Humidity: 88%   Direction: 170°S
Pressure: 30"   Gusts: NA
Location:  47.27°N, 8.6°E
Report Text: LSMD 210450Z 17004KT 120V260 9999 -SHRA FEW027 BKN035 OVC073 14/12 Q1016 RMK WHT
Loading
Personal Weather Stations






























Interactive Weather Map
Tropical Storm Tracking
New forecast layout! Learn more

10-Day Weather Forecast

Advertisements
Track Severe Weather on mobile